sensor_id;sensor_type;location;lat;lon;timestamp;pressure;altitude;pressure_sealevel;temperature;humidity
10706;BME280;5404;42.656;23.336;2023-05-09T00:01:11;95204.72;;;13.20;100.00
10706;BME280;5404;42.656;23.336;2023-05-09T00:03:39;95200.69;;;13.22;100.00
10706;BME280;5404;42.656;23.336;2023-05-09T00:06:06;95149.88;;;12.81;100.00
10706;BME280;5404;42.656;23.336;2023-05-09T00:08:32;95200.91;;;13.12;100.00
10706;BME280;5404;42.656;23.336;2023-05-09T00:10:58;95198.50;;;13.11;100.00
10706;BME280;5404;42.656;23.336;2023-05-09T00:13:24;95201.06;;;13.16;100.00
10706;BME280;5404;42.656;23.336;2023-05-09T00:15:51;95205.66;;;13.15;100.00
10706;BME280;5404;42.656;23.336;2023-05-09T00:18:19;95202.34;;;13.18;100.00
10706;BME280;5404;42.656;23.336;2023-05-09T00:20:46;95209.19;;;13.24;100.00
10706;BME280;5404;42.656;23.336;2023-05-09T00:23:12;95205.41;;;13.25;100.00
10706;BME280;5404;42.656;23.336;2023-05-09T00:25:37;95204.31;;;13.26;100.00
10706;BME280;5404;42.656;23.336;2023-05-09T00:28:04;95197.16;;;13.35;100.00
10706;BME280;5404;42.656;23.336;2023-05-09T00:30:30;95192.91;;;13.34;100.00
10706;BME280;5404;42.656;23.336;2023-05-09T00:32:55;95186.94;;;13.37;100.00
10706;BME280;5404;42.656;23.336;2023-05-09T00:35:20;95186.94;;;13.37;100.00
10706;BME280;5404;42.656;23.336;2023-05-09T00:37:46;95189.81;;;13.41;100.00
10706;BME280;5404;42.656;23.336;2023-05-09T00:40:11;95184.66;;;13.44;100.00
10706;BME280;5404;42.656;23.336;2023-05-09T00:42:39;95186.34;;;13.40;100.00
10706;BME280;5404;42.656;23.336;2023-05-09T00:45:05;95187.44;;;13.39;100.00
10706;BME280;5404;42.656;23.336;2023-05-09T00:47:32;95194.38;;;13.40;100.00
10706;BME280;5404;42.656;23.336;2023-05-09T00:49:58;95189.94;;;13.36;100.00
10706;BME280;5404;42.656;23.336;2023-05-09T00:52:24;95196.09;;;13.36;100.00
10706;BME280;5404;42.656;23.336;2023-05-09T00:54:51;95193.09;;;13.38;100.00
10706;BME280;5404;42.656;23.336;2023-05-09T00:57:18;95196.16;;;13.45;100.00
10706;BME280;5404;42.656;23.336;2023-05-09T00:59:44;95195.75;;;13.51;100.00
10706;BME280;5404;42.656;23.336;2023-05-09T01:02:11;95181.84;;;13.49;100.00
10706;BME280;5404;42.656;23.336;2023-05-09T01:04:37;95182.97;;;13.48;100.00
10706;BME280;5404;42.656;23.336;2023-05-09T01:07:10;95183.06;;;13.43;100.00
10706;BME280;5404;42.656;23.336;2023-05-09T01:09:59;95178.31;;;13.40;100.00
10706;BME280;5404;42.656;23.336;2023-05-09T01:26:05;95180.47;;;13.16;100.00
10706;BME280;5404;42.656;23.336;2023-05-09T01:31:04;95156.09;;;13.04;100.00
10706;BME280;5404;42.656;23.336;2023-05-09T01:33:35;95173.91;;;13.22;100.00
10706;BME280;5404;42.656;23.336;2023-05-09T01:36:05;95180.16;;;13.18;100.00
10706;BME280;5404;42.656;23.336;2023-05-09T01:38:36;95170.13;;;13.23;100.00
10706;BME280;5404;42.656;23.336;2023-05-09T01:41:03;95174.16;;;13.12;100.00
10706;BME280;5404;42.656;23.336;2023-05-09T01:43:32;95174.16;;;13.12;100.00
10706;BME280;5404;42.656;23.336;2023-05-09T01:45:58;95170.97;;;13.10;100.00
10706;BME280;5404;42.656;23.336;2023-05-09T01:48:25;95171.28;;;13.09;100.00
10706;BME280;5404;42.656;23.336;2023-05-09T01:50:56;95174.03;;;13.04;100.00
10706;BME280;5404;42.656;23.336;2023-05-09T01:53:23;95180.75;;;13.01;100.00
10706;BME280;5404;42.656;23.336;2023-05-09T01:55:50;95189.81;;;13.05;100.00
10706;BME280;5404;42.656;23.336;2023-05-09T01:58:17;95184.16;;;13.07;100.00
10706;BME280;5404;42.656;23.336;2023-05-09T02:00:46;95189.28;;;13.17;100.00
10706;BME280;5404;42.656;23.336;2023-05-09T02:03:12;95183.63;;;13.18;100.00
10706;BME280;5404;42.656;23.336;2023-05-09T02:05:41;95182.72;;;13.23;100.00
10706;BME280;5404;42.656;23.336;2023-05-09T02:08:08;95185.13;;;13.24;100.00
10706;BME280;5404;42.656;23.336;2023-05-09T02:10:35;95183.41;;;13.28;100.00
10706;BME280;5404;42.656;23.336;2023-05-09T02:13:02;95183.09;;;13.30;100.00
10706;BME280;5404;42.656;23.336;2023-05-09T02:15:30;95185.47;;;13.31;100.00
10706;BME280;5404;42.656;23.336;2023-05-09T02:17:56;95175.50;;;13.23;100.00
10706;BME280;5404;42.656;23.336;2023-05-09T02:20:21;95175.91;;;13.17;100.00
10706;BME280;5404;42.656;23.336;2023-05-09T02:22:47;95175.09;;;13.16;100.00
10706;BME280;5404;42.656;23.336;2023-05-09T02:25:13;95166.19;;;13.21;100.00
10706;BME280;5404;42.656;23.336;2023-05-09T02:27:44;95168.69;;;13.17;100.00
10706;BME280;5404;42.656;23.336;2023-05-09T02:30:14;95148.38;;;13.03;100.00
10706;BME280;5404;42.656;23.336;2023-05-09T02:32:43;95173.63;;;13.24;100.00
10706;BME280;5404;42.656;23.336;2023-05-09T02:35:10;95182.59;;;13.28;100.00
10706;BME280;5404;42.656;23.336;2023-05-09T02:37:38;95178.66;;;13.25;100.00
10706;BME280;5404;42.656;23.336;2023-05-09T02:40:05;95147.97;;;13.09;100.00
10706;BME280;5404;42.656;23.336;2023-05-09T02:42:34;95177.56;;;13.26;100.00
10706;BME280;5404;42.656;23.336;2023-05-09T02:44:59;95169.94;;;13.20;100.00
10706;BME280;5404;42.656;23.336;2023-05-09T02:47:25;95179.50;;;13.12;100.00
10706;BME280;5404;42.656;23.336;2023-05-09T02:49:50;95179.56;;;13.07;100.00
10706;BME280;5404;42.656;23.336;2023-05-09T02:52:16;95176.44;;;13.05;100.00
10706;BME280;5404;42.656;23.336;2023-05-09T02:54:41;95190.19;;;13.12;100.00
10706;BME280;5404;42.656;23.336;2023-05-09T02:57:06;95191.97;;;13.17;100.00
10706;BME280;5404;42.656;23.336;2023-05-09T02:59:32;95179.38;;;13.17;100.00
10706;BME280;5404;42.656;23.336;2023-05-09T03:01:58;95188.38;;;13.21;100.00
10706;BME280;5404;42.656;23.336;2023-05-09T03:04:29;95187.09;;;13.19;100.00
10706;BME280;5404;42.656;23.336;2023-05-09T03:06:55;95173.66;;;13.10;100.00
10706;BME280;5404;42.656;23.336;2023-05-09T03:09:20;95185.59;;;13.26;100.00
10706;BME280;5404;42.656;23.336;2023-05-09T03:11:45;95194.28;;;13.32;100.00
10706;BME280;5404;42.656;23.336;2023-05-09T03:14:11;95194.69;;;13.39;100.00
10706;BME280;5404;42.656;23.336;2023-05-09T03:16:38;95192.00;;;13.39;100.00
10706;BME280;5404;42.656;23.336;2023-05-09T03:19:04;95112.50;;;12.90;100.00
10706;BME280;5404;42.656;23.336;2023-05-09T03:21:29;95202.28;;;13.45;100.00
10706;BME280;5404;42.656;23.336;2023-05-09T03:23:56;95203.38;;;13.44;100.00
10706;BME280;5404;42.656;23.336;2023-05-09T03:26:21;95202.09;;;13.42;100.00
10706;BME280;5404;42.656;23.336;2023-05-09T03:28:47;95213.00;;;13.45;100.00
10706;BME280;5404;42.656;23.336;2023-05-09T03:31:13;95215.66;;;13.45;100.00
10706;BME280;5404;42.656;23.336;2023-05-09T03:33:39;95233.91;;;13.43;100.00
10706;BME280;5404;42.656;23.336;2023-05-09T03:36:04;95220.63;;;13.38;100.00
10706;BME280;5404;42.656;23.336;2023-05-09T03:38:32;95227.00;;;13.42;100.00
10706;BME280;5404;42.656;23.336;2023-05-09T03:40:58;95231.34;;;13.38;100.00
10706;BME280;5404;42.656;23.336;2023-05-09T03:43:24;95229.78;;;13.37;100.00
10706;BME280;5404;42.656;23.336;2023-05-09T03:45:49;95232.56;;;13.32;100.00
10706;BME280;5404;42.656;23.336;2023-05-09T03:48:15;95200.50;;;13.05;100.00
10706;BME280;5404;42.656;23.336;2023-05-09T03:50:40;95235.47;;;13.22;100.00
10706;BME280;5404;42.656;23.336;2023-05-09T03:53:06;95232.28;;;13.20;100.00
10706;BME280;5404;42.656;23.336;2023-05-09T03:55:31;95227.75;;;13.21;100.00
10706;BME280;5404;42.656;23.336;2023-05-09T03:57:56;95233.38;;;13.19;100.00
10706;BME280;5404;42.656;23.336;2023-05-09T04:00:22;95242.50;;;13.18;100.00
10706;BME280;5404;42.656;23.336;2023-05-09T04:02:48;95240.72;;;13.14;100.00
10706;BME280;5404;42.656;23.336;2023-05-09T04:05:14;95246.66;;;13.11;100.00
10706;BME280;5404;42.656;23.336;2023-05-09T04:07:40;95249.41;;;13.19;100.00
10706;BME280;5404;42.656;23.336;2023-05-09T04:10:06;95240.81;;;13.22;100.00
10706;BME280;5404;42.656;23.336;2023-05-09T04:12:32;95241.09;;;13.07;100.00
10706;BME280;5404;42.656;23.336;2023-05-09T04:14:57;95245.66;;;13.20;100.00
10706;BME280;5404;42.656;23.336;2023-05-09T04:17:23;95243.88;;;13.29;100.00
10706;BME280;5404;42.656;23.336;2023-05-09T04:19:48;95239.63;;;13.15;100.00
10706;BME280;5404;42.656;23.336;2023-05-09T04:22:14;95238.91;;;13.23;100.00
10706;BME280;5404;42.656;23.336;2023-05-09T04:24:39;95239.28;;;13.30;100.00
10706;BME280;5404;42.656;23.336;2023-05-09T04:27:06;95249.97;;;13.43;100.00
10706;BME280;5404;42.656;23.336;2023-05-09T04:29:32;95241.13;;;13.56;100.00
10706;BME280;5404;42.656;23.336;2023-05-09T04:31:58;95239.69;;;13.72;100.00
10706;BME280;5404;42.656;23.336;2023-05-09T04:34:24;95239.03;;;13.89;100.00
10706;BME280;5404;42.656;23.336;2023-05-09T04:36:50;95240.31;;;14.14;100.00
10706;BME280;5404;42.656;23.336;2023-05-09T04:39:16;95238.91;;;14.38;100.00
10706;BME280;5404;42.656;23.336;2023-05-09T04:41:43;95223.78;;;14.42;100.00
10706;BME280;5404;42.656;23.336;2023-05-09T04:44:10;95225.19;;;14.40;100.00
10706;BME280;5404;42.656;23.336;2023-05-09T04:46:36;95217.63;;;14.42;100.00
10706;BME280;5404;42.656;23.336;2023-05-09T04:49:01;95201.69;;;14.37;100.00
10706;BME280;5404;42.656;23.336;2023-05-09T04:51:27;95205.97;;;14.38;100.00
10706;BME280;5404;42.656;23.336;2023-05-09T04:53:52;95214.28;;;14.36;100.00
10706;BME280;5404;42.656;23.336;2023-05-09T04:56:18;95208.19;;;14.44;100.00
10706;BME280;5404;42.656;23.336;2023-05-09T04:58:43;95212.81;;;14.52;100.00
10706;BME280;5404;42.656;23.336;2023-05-09T05:01:08;95191.00;;;14.45;100.00
10706;BME280;5404;42.656;23.336;2023-05-09T05:03:34;95198.91;;;14.50;100.00
10706;BME280;5404;42.656;23.336;2023-05-09T05:06:01;95209.84;;;14.62;100.00
10706;BME280;5404;42.656;23.336;2023-05-09T05:08:26;95201.34;;;14.69;100.00
10706;BME280;5404;42.656;23.336;2023-05-09T05:10:52;95188.72;;;14.69;100.00
10706;BME280;5404;42.656;23.336;2023-05-09T05:13:17;95175.59;;;14.59;100.00
10706;BME280;5404;42.656;23.336;2023-05-09T05:15:42;95192.72;;;14.80;100.00
10706;BME280;5404;42.656;23.336;2023-05-09T05:18:08;95185.34;;;14.94;100.00
10706;BME280;5404;42.656;23.336;2023-05-09T05:20:33;95175.88;;;14.97;100.00
10706;BME280;5404;42.656;23.336;2023-05-09T05:22:59;95186.78;;;15.00;100.00
10706;BME280;5404;42.656;23.336;2023-05-09T05:25:25;95174.72;;;14.81;100.00
10706;BME280;5404;42.656;23.336;2023-05-09T05:27:52;95182.16;;;14.75;100.00
10706;BME280;5404;42.656;23.336;2023-05-09T05:30:18;95182.72;;;14.64;100.00
10706;BME280;5404;42.656;23.336;2023-05-09T05:32:45;95161.50;;;14.45;100.00
10706;BME280;5404;42.656;23.336;2023-05-09T05:35:10;95133.94;;;14.23;100.00
10706;BME280;5404;42.656;23.336;2023-05-09T05:37:40;95197.09;;;14.68;100.00
10706;BME280;5404;42.656;23.336;2023-05-09T05:40:06;95209.75;;;14.76;100.00
10706;BME280;5404;42.656;23.336;2023-05-09T05:42:32;95202.53;;;14.85;100.00
10706;BME280;5404;42.656;23.336;2023-05-09T05:44:58;95203.34;;;14.94;100.00
10706;BME280;5404;42.656;23.336;2023-05-09T05:47:32;95190.41;;;14.96;100.00
10706;BME280;5404;42.656;23.336;2023-05-09T05:49:58;95191.97;;;14.88;100.00
10706;BME280;5404;42.656;23.336;2023-05-09T05:52:24;95190.53;;;14.82;100.00
10706;BME280;5404;42.656;23.336;2023-05-09T05:54:51;95211.06;;;14.48;100.00
10706;BME280;5404;42.656;23.336;2023-05-09T05:57:17;95201.03;;;14.62;100.00
10706;BME280;5404;42.656;23.336;2023-05-09T05:59:46;95204.63;;;14.57;100.00
10706;BME280;5404;42.656;23.336;2023-05-09T06:02:11;95210.72;;;14.80;100.00
10706;BME280;5404;42.656;23.336;2023-05-09T06:04:37;95204.44;;;14.93;100.00
10706;BME280;5404;42.656;23.336;2023-05-09T06:07:02;95206.91;;;14.81;100.00
10706;BME280;5404;42.656;23.336;2023-05-09T06:09:28;95202.84;;;14.83;100.00
10706;BME280;5404;42.656;23.336;2023-05-09T06:11:53;95205.53;;;14.92;100.00
10706;BME280;5404;42.656;23.336;2023-05-09T06:14:18;95201.47;;;15.03;100.00
10706;BME280;5404;42.656;23.336;2023-05-09T06:16:44;95198.91;;;14.98;100.00
10706;BME280;5404;42.656;23.336;2023-05-09T06:19:10;95193.09;;;14.96;100.00
10706;BME280;5404;42.656;23.336;2023-05-09T06:21:35;95194.50;;;15.02;100.00
10706;BME280;5404;42.656;23.336;2023-05-09T06:24:01;95116.41;;;14.47;100.00
10706;BME280;5404;42.656;23.336;2023-05-09T06:26:28;95199.22;;;14.88;100.00
10706;BME280;5404;42.656;23.336;2023-05-09T06:28:53;95195.78;;;14.96;100.00
10706;BME280;5404;42.656;23.336;2023-05-09T06:31:19;95204.50;;;14.71;100.00
10706;BME280;5404;42.656;23.336;2023-05-09T06:33:46;95189.06;;;14.68;100.00
10706;BME280;5404;42.656;23.336;2023-05-09T06:36:11;95199.38;;;14.91;100.00
10706;BME280;5404;42.656;23.336;2023-05-09T06:38:36;95195.31;;;15.02;100.00
10706;BME280;5404;42.656;23.336;2023-05-09T06:41:02;95196.91;;;15.20;100.00
10706;BME280;5404;42.656;23.336;2023-05-09T06:43:27;95188.09;;;15.29;100.00
10706;BME280;5404;42.656;23.336;2023-05-09T06:45:54;95150.94;;;15.05;100.00
10706;BME280;5404;42.656;23.336;2023-05-09T06:48:20;95182.72;;;15.20;100.00
10706;BME280;5404;42.656;23.336;2023-05-09T06:50:45;95184.78;;;15.23;100.00
10706;BME280;5404;42.656;23.336;2023-05-09T06:53:11;95182.44;;;15.39;100.00
10706;BME280;5404;42.656;23.336;2023-05-09T06:55:36;95042.16;;;14.56;100.00
10706;BME280;5404;42.656;23.336;2023-05-09T06:58:02;95179.78;;;15.47;100.00
10706;BME280;5404;42.656;23.336;2023-05-09T07:00:27;95185.25;;;15.25;100.00
10706;BME280;5404;42.656;23.336;2023-05-09T07:02:53;95182.78;;;15.46;100.00
10706;BME280;5404;42.656;23.336;2023-05-09T07:05:18;95160.59;;;15.14;100.00
10706;BME280;5404;42.656;23.336;2023-05-09T07:07:44;95174.09;;;15.40;100.00
10706;BME280;5404;42.656;23.336;2023-05-09T07:10:11;95178.34;;;15.50;100.00
10706;BME280;5404;42.656;23.336;2023-05-09T07:12:37;95149.88;;;15.32;100.00
10706;BME280;5404;42.656;23.336;2023-05-09T07:15:02;95180.38;;;15.18;100.00
10706;BME280;5404;42.656;23.336;2023-05-09T07:17:28;95171.16;;;15.02;100.00
10706;BME280;5404;42.656;23.336;2023-05-09T07:19:54;95170.38;;;15.02;100.00
10706;BME280;5404;42.656;23.336;2023-05-09T07:22:22;95183.47;;;15.12;100.00
10706;BME280;5404;42.656;23.336;2023-05-09T07:24:48;95161.84;;;15.17;100.00
10706;BME280;5404;42.656;23.336;2023-05-09T07:27:15;95179.56;;;15.18;100.00
10706;BME280;5404;42.656;23.336;2023-05-09T07:29:41;95180.66;;;15.17;100.00
10706;BME280;5404;42.656;23.336;2023-05-09T07:32:07;95170.25;;;15.24;100.00
10706;BME280;5404;42.656;23.336;2023-05-09T07:34:32;95176.41;;;15.25;100.00
10706;BME280;5404;42.656;23.336;2023-05-09T07:36:57;95172.59;;;15.26;100.00
10706;BME280;5404;42.656;23.336;2023-05-09T07:39:23;95164.09;;;15.24;100.00
10706;BME280;5404;42.656;23.336;2023-05-09T07:41:48;95167.22;;;15.26;100.00
10706;BME280;5404;42.656;23.336;2023-05-09T07:44:15;95174.38;;;15.30;100.00
10706;BME280;5404;42.656;23.336;2023-05-09T07:46:41;95178.94;;;15.30;100.00
10706;BME280;5404;42.656;23.336;2023-05-09T07:49:07;95176.56;;;15.37;100.00
10706;BME280;5404;42.656;23.336;2023-05-09T07:51:32;95176.56;;;15.37;100.00
10706;BME280;5404;42.656;23.336;2023-05-09T07:53:59;95167.41;;;15.29;100.00
10706;BME280;5404;42.656;23.336;2023-05-09T07:56:25;95135.31;;;15.07;100.00
10706;BME280;5404;42.656;23.336;2023-05-09T07:58:51;95160.28;;;15.16;100.00
10706;BME280;5404;42.656;23.336;2023-05-09T08:01:16;95148.44;;;15.08;100.00
10706;BME280;5404;42.656;23.336;2023-05-09T08:03:42;95163.94;;;15.20;100.00
10706;BME280;5404;42.656;23.336;2023-05-09T08:06:08;95170.09;;;15.29;100.00
10706;BME280;5404;42.656;23.336;2023-05-09T08:08:33;95162.19;;;15.33;100.00
10706;BME280;5404;42.656;23.336;2023-05-09T08:11:00;95149.53;;;15.07;100.00
10706;BME280;5404;42.656;23.336;2023-05-09T08:13:26;95170.69;;;15.00;100.00
10706;BME280;5404;42.656;23.336;2023-05-09T08:15:51;95177.16;;;14.99;100.00
10706;BME280;5404;42.656;23.336;2023-05-09T08:18:17;95176.53;;;15.11;100.00
10706;BME280;5404;42.656;23.336;2023-05-09T08:20:42;95176.88;;;15.18;100.00
10706;BME280;5404;42.656;23.336;2023-05-09T08:23:08;95170.72;;;15.17;100.00
10706;BME280;5404;42.656;23.336;2023-05-09T08:25:33;95175.59;;;15.24;100.00
10706;BME280;5404;42.656;23.336;2023-05-09T08:27:59;95134.56;;;15.15;100.00
10706;BME280;5404;42.656;23.336;2023-05-09T08:30:24;95164.63;;;15.51;100.00
10706;BME280;5404;42.656;23.336;2023-05-09T08:32:50;95159.53;;;15.67;100.00
10706;BME280;5404;42.656;23.336;2023-05-09T08:35:15;95162.66;;;15.94;100.00
10706;BME280;5404;42.656;23.336;2023-05-09T08:37:41;95158.56;;;16.05;100.00
10706;BME280;5404;42.656;23.336;2023-05-09T08:40:07;95153.66;;;15.99;100.00
10706;BME280;5404;42.656;23.336;2023-05-09T08:42:35;95156.34;;;15.99;100.00
10706;BME280;5404;42.656;23.336;2023-05-09T08:45:24;95151.13;;;16.11;100.00
10706;BME280;5404;42.656;23.336;2023-05-09T08:47:50;95128.97;;;16.14;100.00
10706;BME280;5404;42.656;23.336;2023-05-09T08:50:16;95147.75;;;16.22;100.00
10706;BME280;5404;42.656;23.336;2023-05-09T08:52:42;95139.72;;;16.05;100.00
10706;BME280;5404;42.656;23.336;2023-05-09T08:55:07;95157.91;;;16.08;100.00
10706;BME280;5404;42.656;23.336;2023-05-09T08:57:34;95151.13;;;16.02;100.00
10706;BME280;5404;42.656;23.336;2023-05-09T09:00:02;95152.56;;;15.91;100.00
10706;BME280;5404;42.656;23.336;2023-05-09T09:02:31;95151.00;;;15.90;100.00
10706;BME280;5404;42.656;23.336;2023-05-09T09:04:58;95143.06;;;16.02;100.00
10706;BME280;5404;42.656;23.336;2023-05-09T09:07:24;95143.53;;;16.13;100.00
10706;BME280;5404;42.656;23.336;2023-05-09T09:09:52;95149.69;;;16.05;100.00
10706;BME280;5404;42.656;23.336;2023-05-09T09:12:21;95155.88;;;15.97;100.00
10706;BME280;5404;42.656;23.336;2023-05-09T09:14:53;95160.59;;;16.08;100.00
10706;BME280;5404;42.656;23.336;2023-05-09T09:17:24;95143.13;;;16.31;100.00
10706;BME280;5404;42.656;23.336;2023-05-09T09:19:54;95149.72;;;16.43;100.00
10706;BME280;5404;42.656;23.336;2023-05-09T09:22:21;95153.09;;;16.31;100.00
10706;BME280;5404;42.656;23.336;2023-05-09T09:24:46;95163.41;;;16.20;100.00
10706;BME280;5404;42.656;23.336;2023-05-09T09:27:12;95152.03;;;16.15;100.00
10706;BME280;5404;42.656;23.336;2023-05-09T09:29:38;95149.22;;;15.94;100.00
10706;BME280;5404;42.656;23.336;2023-05-09T09:32:05;95165.84;;;15.79;100.00
10706;BME280;5404;42.656;23.336;2023-05-09T09:34:31;95175.03;;;15.70;100.00
10706;BME280;5404;42.656;23.336;2023-05-09T09:36:57;95170.44;;;15.79;100.00
10706;BME280;5404;42.656;23.336;2023-05-09T09:39:23;95161.13;;;15.68;100.00
10706;BME280;5404;42.656;23.336;2023-05-09T09:41:48;95170.75;;;15.52;100.00
10706;BME280;5404;42.656;23.336;2023-05-09T09:44:18;95164.44;;;15.31;100.00
10706;BME280;5404;42.656;23.336;2023-05-09T09:46:44;95176.06;;;15.17;100.00
10706;BME280;5404;42.656;23.336;2023-05-09T09:49:14;95189.81;;;15.07;100.00
10706;BME280;5404;42.656;23.336;2023-05-09T09:51:41;95178.25;;;15.07;100.00
10706;BME280;5404;42.656;23.336;2023-05-09T09:54:08;95199.22;;;14.88;100.00
10706;BME280;5404;42.656;23.336;2023-05-09T09:56:45;95185.38;;;15.03;100.00
10706;BME280;5404;42.656;23.336;2023-05-09T09:59:16;95185.97;;;15.00;100.00
10706;BME280;5404;42.656;23.336;2023-05-09T10:02:04;95181.75;;;15.16;100.00
10706;BME280;5404;42.656;23.336;2023-05-09T10:04:35;95139.44;;;15.04;100.00
10706;BME280;5404;42.656;23.336;2023-05-09T10:07:04;95175.66;;;15.41;100.00
10706;BME280;5404;42.656;23.336;2023-05-09T10:09:30;95157.16;;;15.74;100.00
10706;BME280;5404;42.656;23.336;2023-05-09T10:12:01;95154.16;;;16.01;100.00
10706;BME280;5404;42.656;23.336;2023-05-09T10:14:27;95146.97;;;16.13;100.00
10706;BME280;5404;42.656;23.336;2023-05-09T10:16:55;95149.78;;;16.25;100.00
10706;BME280;5404;42.656;23.336;2023-05-09T10:19:22;95149.44;;;16.35;100.00
10706;BME280;5404;42.656;23.336;2023-05-09T10:21:54;95086.31;;;16.04;100.00
10706;BME280;5404;42.656;23.336;2023-05-09T10:24:26;95171.09;;;15.59;100.00
10706;BME280;5404;42.656;23.336;2023-05-09T10:26:59;95171.88;;;15.42;100.00
10706;BME280;5404;42.656;23.336;2023-05-09T10:29:28;95166.81;;;15.83;100.00
10706;BME280;5404;42.656;23.336;2023-05-09T10:31:58;95153.34;;;16.00;100.00
10706;BME280;5404;42.656;23.336;2023-05-09T10:34:25;95163.00;;;15.84;100.00
10706;BME280;5404;42.656;23.336;2023-05-09T10:36:52;95151.59;;;16.04;100.00
10706;BME280;5404;42.656;23.336;2023-05-09T10:39:18;95154.16;;;16.01;100.00
10706;BME280;5404;42.656;23.336;2023-05-09T10:41:46;95129.81;;;15.89;100.00
10706;BME280;5404;42.656;23.336;2023-05-09T10:44:14;95151.25;;;16.14;100.00
10706;BME280;5404;42.656;23.336;2023-05-09T10:46:40;95148.63;;;15.97;100.00
10706;BME280;5404;42.656;23.336;2023-05-09T10:49:07;95136.13;;;15.84;100.00
10706;BME280;5404;42.656;23.336;2023-05-09T10:51:32;95164.56;;;16.02;100.00
10706;BME280;5404;42.656;23.336;2023-05-09T10:53:58;95161.44;;;15.83;100.00
10706;BME280;5404;42.656;23.336;2023-05-09T10:56:33;95168.88;;;15.69;100.00
10706;BME280;5404;42.656;23.336;2023-05-09T10:59:04;95143.75;;;15.65;100.00
10706;BME280;5404;42.656;23.336;2023-05-09T11:01:37;95157.47;;;15.89;100.00
10706;BME280;5404;42.656;23.336;2023-05-09T11:04:15;95156.22;;;15.78;100.00
10706;BME280;5404;42.656;23.336;2023-05-09T11:12:08;95155.34;;;16.20;100.00
10706;BME280;5404;42.656;23.336;2023-05-09T11:14:42;95117.09;;;16.06;100.00
10706;BME280;5404;42.656;23.336;2023-05-09T11:17:13;95152.91;;;16.45;100.00
10706;BME280;5404;42.656;23.336;2023-05-09T11:22:21;95126.31;;;16.43;100.00
10706;BME280;5404;42.656;23.336;2023-05-09T11:24:51;95148.91;;;16.59;100.00
10706;BME280;5404;42.656;23.336;2023-05-09T11:27:22;95154.69;;;16.78;100.00
10706;BME280;5404;42.656;23.336;2023-05-09T11:29:51;95143.03;;;16.95;100.00
10706;BME280;5404;42.656;23.336;2023-05-09T11:32:18;95152.44;;;16.80;100.00
10706;BME280;5404;42.656;23.336;2023-05-09T11:34:44;95148.91;;;16.59;100.00
10706;BME280;5404;42.656;23.336;2023-05-09T11:37:15;95152.50;;;16.17;100.00
10706;BME280;5404;42.656;23.336;2023-05-09T11:40:16;95160.66;;;15.66;100.00
10706;BME280;5404;42.656;23.336;2023-05-09T11:42:43;95166.81;;;15.66;100.00
10706;BME280;5404;42.656;23.336;2023-05-09T11:45:11;95113.25;;;15.78;100.00
10706;BME280;5404;42.656;23.336;2023-05-09T11:47:37;95121.59;;;15.94;100.00
10706;BME280;5404;42.656;23.336;2023-05-09T11:50:07;95119.66;;;15.94;100.00
10706;BME280;5404;42.656;23.336;2023-05-09T11:52:34;95134.69;;;16.04;100.00
10706;BME280;5404;42.656;23.336;2023-05-09T11:55:01;95158.56;;;16.05;100.00
10706;BME280;5404;42.656;23.336;2023-05-09T11:57:27;95139.72;;;16.05;100.00
10706;BME280;5404;42.656;23.336;2023-05-09T11:59:53;95150.97;;;16.07;100.00
10706;BME280;5404;42.656;23.336;2023-05-09T12:02:20;95115.09;;;15.86;100.00
10706;BME280;5404;42.656;23.336;2023-05-09T12:04:46;95152.03;;;16.15;100.00
10706;BME280;5404;42.656;23.336;2023-05-09T12:07:12;95144.13;;;16.18;100.00
10706;BME280;5404;42.656;23.336;2023-05-09T12:09:39;95148.50;;;15.77;100.00
10706;BME280;5404;42.656;23.336;2023-05-09T12:12:09;95156.81;;;16.01;100.00
10706;BME280;5404;42.656;23.336;2023-05-09T12:14:35;95142.75;;;16.04;100.00
10706;BME280;5404;42.656;23.336;2023-05-09T12:17:01;95144.50;;;15.91;100.00
10706;BME280;5404;42.656;23.336;2023-05-09T12:19:27;95154.31;;;15.70;100.00
10706;BME280;5404;42.656;23.336;2023-05-09T12:22:00;95156.72;;;15.63;100.00
10706;BME280;5404;42.656;23.336;2023-05-09T12:24:26;95164.91;;;15.41;100.00
10706;BME280;5404;42.656;23.336;2023-05-09T12:26:55;95150.34;;;15.08;100.00
10706;BME280;5404;42.656;23.336;2023-05-09T12:29:21;95159.59;;;14.85;100.00
10706;BME280;5404;42.656;23.336;2023-05-09T12:31:49;95161.06;;;14.52;100.00
10706;BME280;5404;42.656;23.336;2023-05-09T12:34:16;95174.09;;;14.14;100.00
10706;BME280;5404;42.656;23.336;2023-05-09T12:36:45;95173.59;;;14.12;100.00
10706;BME280;5404;42.656;23.336;2023-05-09T12:39:31;95183.81;;;14.01;100.00
10706;BME280;5404;42.656;23.336;2023-05-09T12:41:56;95186.66;;;13.83;100.00
10706;BME280;5404;42.656;23.336;2023-05-09T12:44:23;95197.56;;;13.86;100.00
10706;BME280;5404;42.656;23.336;2023-05-09T12:47:03;95188.91;;;13.67;100.00
10706;BME280;5404;42.656;23.336;2023-05-09T12:49:30;95190.16;;;13.61;100.00
10706;BME280;5404;42.656;23.336;2023-05-09T12:51:58;95196.22;;;13.53;100.00
10706;BME280;5404;42.656;23.336;2023-05-09T12:54:26;95194.81;;;13.56;100.00
10706;BME280;5404;42.656;23.336;2023-05-09T12:56:53;95173.78;;;13.63;100.00
10706;BME280;5404;42.656;23.336;2023-05-09T12:59:25;95183.09;;;13.65;100.00
10706;BME280;5404;42.656;23.336;2023-05-09T13:01:58;95168.78;;;13.48;100.00
10706;BME280;5404;42.656;23.336;2023-05-09T13:04:25;95177.25;;;13.41;100.00
10706;BME280;5404;42.656;23.336;2023-05-09T13:06:54;95184.78;;;13.39;100.00
10706;BME280;5404;42.656;23.336;2023-05-09T13:09:22;95176.81;;;13.48;100.00
10706;BME280;5404;42.656;23.336;2023-05-09T13:11:49;95165.94;;;13.66;100.00
10706;BME280;5404;42.656;23.336;2023-05-09T13:14:20;95165.28;;;13.91;100.00